Station info - map view · info · telemetry · weather · raw · status · beacons · messages · bulletins · browse · moving · my account
Callsign, ship name or locator: Clear       
It is possible to search using wildcards (*?) after a prefix. Example: OH*
APRS station DD0UL-9 - show graphs
Map loading...
Mic-E message: En route
Location: 48°07.46' N 11°34.65' E - locator JN58SC99HU - show map - static map
0.9 miles South bearing 174° from München (Muenchen), Regierungsbezirk Oberbayern, Bavaria, Germany [?]
2.5 miles Southwest bearing 226° from Bogenhausen, Bavaria, Germany
7.3 miles West bearing 257° from Feldkirchen, Regierungsbezirk Oberbayern, Bavaria, Germany
36.0 miles Southeast bearing 117° from Augsburg, Regierungsbezirk Schwaben, Bavaria, Germany
Last position: 2019-06-02 12:50:37 EDT (23d 8h51m ago)
2019-06-02 18:50:37 CEST local time at München, Germany [?]
Altitude: 1713 ft
Course: 352°
Device: Kenwood: TH-D74 (ht)
Last path: DD0UL-9>TX0W46 via WIDE1-1,qAR,DB0EL (good)
Positions stored: 7842
Other SSIDs: DD0UL-10 DD0UL-5 DD0UL-B DD0UL-DP
Stations near current position of DD0UL-9 - show more
callsign distance last heard - EDT      callsign distance last heard - EDT
DJ1WHV-40.5 miles 349°2019-06-19 14:51:30 DD0UL B0.8 miles 15°2019-06-25 21:33:40
DD0UL-B0.8 miles 15°2019-06-25 21:33:51 DO1AIE-70.9 miles 43°2019-06-24 10:51:35
SP9DON-101.0 miles 150°2019-06-24 10:45:21 W7SAZ-i1.2 miles 277°2019-06-22 19:18:27
F4FXL-71.2 miles 315°2019-06-24 14:21:16 DO3SBA-91.3 miles 325°2019-06-25 05:07:41
DJ1WHV1.4 miles 245°2019-06-05 15:21:16 DF2PH1.5 miles 319°2019-06-25 12:11:11
P2920992_1.8 miles 346°2019-05-30 08:49:26 P29209921.9 miles 345°2019-05-30 08:48:39
DG3FDM-71.9 miles 335°2019-06-23 12:38:51 DB0MUC2.2 miles 339°2019-06-25 21:29:24
DH9ZIG-DP2.2 miles 271°2019-06-06 17:34:12 DH1MFS-92.2 miles 231°2019-06-22 14:42:32
DK1MEB-12.3 miles 312°2019-06-16 13:45:07 DH8HHA-52.3 miles 96°2019-06-24 14:57:37
DK1MEB2.3 miles 314°2019-06-13 14:41:44 DH1MFS2.3 miles 233°2019-06-11 07:13:59
Stations which heard DD0UL-9 directly on radio –
callsign pkts first heard - EDT last heard longest (tx => rx) longest at - EDT
DB0MI 1 2019-06-02 08:37:33 2019-06-02 08:37:33 JN49NX > JN49PS 16.2 miles 154° 2019-06-02 08:37:33
DB0MMO 2 2019-06-02 08:55:57 2019-06-02 08:59:59 JN49SU > JN49RV 5.2 miles 318° 2019-06-02 08:59:59
DB0VOX 16 2019-06-02 10:10:18 2019-06-02 11:07:10 JN59OE > JN59MK 18.0 miles 330° 2019-06-02 11:07:10
DB0MYK 2 2019-06-02 06:50:49 2019-06-02 06:53:25 JO40AT > JO30OJ 47.9 miles 232° 2019-06-02 06:53:25
DB0KT 14 2019-06-02 07:39:23 2019-06-02 08:19:09 JO40ME > JO40PL 24.5 miles 28° 2019-06-02 08:19:09
DB0ADS 19 2019-06-02 09:34:46 2019-06-02 10:07:15 JN59BS > JN59GT 20.3 miles 88° 2019-06-02 09:34:46
DB0ASF 14 2019-06-02 07:39:22 2019-06-02 08:29:23 JO40IL > JO40NB 31.9 miles 148° 2019-06-02 07:39:22
DB0LP 1 2019-06-02 11:10:14 2019-06-02 11:10:14 JN59PD > JN59UD 19.7 miles 91° 2019-06-02 11:10:14
DB0NY 4 2019-06-02 06:19:39 2019-06-02 06:34:01 JO30WX > JO31TB 11.5 miles 300° 2019-06-02 06:34:01
DB0WZ 17 2019-06-02 09:15:22 2019-06-02 09:45:59 JN59ES > JN49WS 21.8 miles 271° 2019-06-02 09:45:59
DB0BOS 1 2019-06-02 08:51:48 2019-06-02 08:51:48 JN49QV > JN49LR 23.1 miles 241° 2019-06-02 08:51:48
DJ8RZ 7 2019-06-02 11:30:30 2019-06-02 11:46:41 JN58RU > JN58RQ 13.6 miles 185° 2019-06-02 11:30:30
DG2NBN-1 1 2019-06-02 10:16:24 2019-06-02 10:16:24 JN59LN > JN59NR 13.1 miles 36° 2019-06-02 10:16:24
DB0FOR 1 2019-06-02 10:25:26 2019-06-02 10:25:26 JN59LN > JN59MO 3.9 miles 39° 2019-06-02 10:25:26
DK1EC-1 7 2019-06-02 10:14:22 2019-06-02 10:52:55 JN59OJ > JN59KM 16.3 miles 302° 2019-06-02 10:52:55
DB0POB 10 2019-06-02 11:28:29 2019-06-02 11:58:51 JN58RV > JN58QP 17.2 miles 193° 2019-06-02 11:28:29
DC4ZZ 4 2019-06-02 08:19:07 2019-06-02 08:26:17 JO40MB > JO40LC 5.0 miles 313° 2019-06-02 08:26:17
DL6DA 9 2019-06-02 06:41:16 2019-06-02 06:53:31 JO40BT > JO40AV 8.3 miles 339° 2019-06-02 06:53:31
DG7NFG-11 8 2019-06-02 08:27:18 2019-06-02 08:49:46 JO40MB > JN49PX 11.6 miles 117° 2019-06-02 08:27:18
DB0LDK 18 2019-06-02 07:07:48 2019-06-02 07:34:12 JO40DQ > JO40GM 14.6 miles 134° 2019-06-02 07:07:48
DG4MLA-10 5 2019-06-02 12:11:02 2019-06-02 12:17:06 JN58TH > JN58TG 4.8 miles 195° 2019-06-02 12:11:02
DL9FCV-10 1 2019-06-02 08:18:07 2019-06-02 08:18:07 JO40ME > JO40NF 5.3 miles 75° 2019-06-02 08:18:07
DB0KU-10 14 2019-06-02 05:44:25 2019-06-02 06:20:54 JO31WB > JO41BE 14.7 miles 52° 2019-06-02 06:20:54
DB0SWR-10 13 2019-06-02 08:54:53 2019-06-02 09:14:19 JN49RV > JN49RQ 13.5 miles 172° 2019-06-02 08:54:53
DC1MBB-10 17 2019-06-02 12:12:03 2019-06-02 12:47:35 JN58TH > JN58TE 8.1 miles 181° 2019-06-02 12:12:03
DG5FFN-10 3 2019-06-02 07:29:08 2019-06-02 07:36:19 JO40IL > JO40JT 22.0 miles 10° 2019-06-02 07:36:19
DB0EL 18 2019-06-02 11:59:52 2019-06-02 12:50:37 JN58TM > JN58SE 23.0 miles 184° 2019-06-02 11:59:52
DL3CK-10 6 2019-06-02 11:31:32 2019-06-02 11:40:38 JN58RU > JN58SS 6.5 miles 158° 2019-06-02 11:31:32
DL1TSC-1 3 2019-06-02 10:24:24 2019-06-02 10:30:30 JN59LN > JN59MO 4.0 miles 66° 2019-06-02 10:24:24
DO1CV-15 1 2019-06-02 08:04:48 2019-06-02 08:04:48 JO40KJ > JO40KI 3.4 miles 206° 2019-06-02 08:04:48
DB0KH-10 1 2019-06-02 07:42:27 2019-06-02 07:42:27 JO40JK > JO40RV 42.2 miles 40° 2019-06-02 07:42:27

Only position packets which were originated by the station are shown here. The range statistics show some extra long hops, because some digipeaters do not correctly add themselves to the digipeater path. Please check the raw packets.
About this site
This page shows real-time information collected from the Automatic Position Reporting System Internet network (APRS-IS). APRS is used by amateur (ham) radio operators to transmit real-time position information, weather data, telemetry and messages over the radio. A vehicle equipped with a GPS receiver, a VHF transmitter or HF transceiver and a small computer device called a tracker transmits it's location, speed and course in a small data packet, which is then received by a nearby iGate receiving site which forwards the packet on the Internet. Systems connected to the Internet can send information on the APRS-IS without a radio transmitter, or collect and display information transmitted anywhere in the world.
FAQ · Blog · Discussion group · Linking to aprs.fi · AIS sites · Service status · Database statistics · Advertising on aprs.fi · Technical details · API · Change log · Planned changes · Credits and thanks · Terms Of Service · iPhone/iPad APRS